createdAt,value
2018-06-12T04:09:53.673Z,1006.75
2018-06-12T04:10:19.190Z,1006.74
2018-06-12T04:10:44.766Z,1006.73
2018-06-12T04:11:10.375Z,1006.77
2018-06-12T04:11:36.061Z,1006.73
2018-06-12T04:12:01.389Z,1006.7
2018-06-12T04:12:26.993Z,1006.71
2018-06-12T04:12:52.794Z,1006.74
2018-06-12T04:13:18.438Z,1006.7
2018-06-12T04:13:43.764Z,1006.7
2018-06-12T04:14:09.252Z,1006.74
2018-06-12T04:14:34.791Z,1006.72
2018-06-12T04:15:00.458Z,1006.75
2018-06-12T04:15:25.887Z,1006.72
2018-06-12T04:15:51.338Z,1006.74
2018-06-12T04:16:16.959Z,1006.76
2018-06-12T04:16:42.433Z,1006.77
2018-06-12T04:17:07.912Z,1006.73
2018-06-12T04:17:33.623Z,1006.73
2018-06-12T04:17:58.938Z,1006.75
2018-06-12T04:18:24.470Z,1006.74
2018-06-12T04:18:50.478Z,1006.75
2018-06-12T04:19:15.927Z,1006.76
2018-06-12T04:19:42.640Z,1006.71
2018-06-12T04:20:08.252Z,1006.71
2018-06-12T04:20:33.920Z,1006.72
2018-06-12T04:20:59.474Z,1006.71
2018-06-12T04:21:25.197Z,1006.74
2018-06-12T04:21:50.748Z,1006.73
2018-06-12T04:22:16.448Z,1006.74
2018-06-12T04:22:41.979Z,1006.73
2018-06-12T04:23:07.345Z,1006.76
2018-06-12T04:23:32.868Z,1006.74
2018-06-12T04:23:58.480Z,1006.8
2018-06-12T04:24:24.148Z,1006.72
2018-06-12T04:24:49.703Z,1006.81
2018-06-12T04:25:15.139Z,1006.77
2018-06-12T04:25:40.610Z,1006.8
2018-06-12T04:26:06.318Z,1006.78
2018-06-12T04:26:32.034Z,1006.77
2018-06-12T04:26:57.748Z,1006.79
2018-06-12T04:27:24.191Z,1006.81
2018-06-12T04:27:49.063Z,1006.74
2018-06-12T04:28:14.612Z,1006.78
2018-06-12T04:28:40.359Z,1006.79
2018-06-12T04:29:06.140Z,1006.78
2018-06-12T04:29:31.579Z,1006.78
2018-06-12T04:29:57.075Z,1006.75
2018-06-12T04:30:22.608Z,1006.79
2018-06-12T04:30:48.125Z,1006.71
2018-06-12T04:31:13.870Z,1006.74
2018-06-12T04:31:39.458Z,1006.71
2018-06-12T04:32:04.871Z,1006.75
2018-06-12T04:32:30.456Z,1006.73
2018-06-12T04:32:56.032Z,1006.76
2018-06-12T04:33:21.568Z,1006.72
2018-06-12T04:33:47.048Z,1006.69
2018-06-12T04:34:12.558Z,1006.72
2018-06-12T04:34:38.127Z,1006.75
2018-06-12T04:35:03.742Z,1006.7
2018-06-12T04:35:29.474Z,1006.69
2018-06-12T04:35:55.351Z,1006.72
2018-06-12T04:36:21.369Z,1006.71
2018-06-12T04:36:46.662Z,1006.68
2018-06-12T04:37:12.142Z,1006.69
2018-06-12T04:37:37.747Z,1006.68
2018-06-12T04:38:03.228Z,1006.66
2018-06-12T04:38:28.871Z,1006.69
2018-06-12T04:38:54.326Z,1006.69
2018-06-12T04:39:19.774Z,1006.67
2018-06-12T04:39:45.358Z,1006.71
2018-06-12T04:40:10.848Z,1006.67
2018-06-12T04:40:36.333Z,1006.7
2018-06-12T04:41:01.860Z,1006.68
2018-06-12T04:41:27.344Z,1006.7
2018-06-12T04:41:52.860Z,1006.7
2018-06-12T04:42:18.386Z,1006.7
2018-06-12T04:42:44.097Z,1006.73
2018-06-12T04:43:09.626Z,1006.69
2018-06-12T04:43:35.065Z,1006.72
2018-06-12T04:44:00.625Z,1006.72
2018-06-12T04:44:26.135Z,1006.73
2018-06-12T04:44:51.750Z,1006.75
2018-06-12T04:45:17.123Z,1006.71
2018-06-12T04:45:42.689Z,1006.73
2018-06-12T04:46:08.241Z,1006.71
2018-06-12T04:46:33.759Z,1006.76
2018-06-12T04:46:59.226Z,1006.75
2018-06-12T04:47:24.695Z,1006.75
2018-06-12T04:47:50.408Z,1006.75
2018-06-12T04:48:15.857Z,1006.76
2018-06-12T04:48:41.318Z,1006.78
2018-06-12T04:49:06.932Z,1006.76
2018-06-12T04:49:32.380Z,1006.81
2018-06-12T04:49:57.919Z,1006.8
2018-06-12T04:50:23.471Z,1006.78
2018-06-12T04:50:48.905Z,1006.81
2018-06-12T04:51:14.507Z,1006.8
2018-06-12T04:51:39.936Z,1006.83
2018-06-12T04:52:05.612Z,1006.83
2018-06-12T04:52:31.079Z,1006.83
2018-06-12T04:52:56.590Z,1006.85
2018-06-12T04:53:22.089Z,1006.82
2018-06-12T04:53:47.560Z,1006.82
2018-06-12T04:54:13.131Z,1006.89
2018-06-12T04:54:38.611Z,1006.87
2018-06-12T04:55:04.194Z,1006.84
2018-06-12T04:55:29.834Z,1006.88
2018-06-12T04:55:55.443Z,1006.83
2018-06-12T04:56:20.852Z,1006.85
2018-06-12T04:56:46.468Z,1006.86
2018-06-12T04:57:11.896Z,1006.87
2018-06-12T04:57:37.399Z,1006.86
2018-06-12T04:58:03.008Z,1006.85
2018-06-12T04:58:28.887Z,1006.86
2018-06-12T04:58:54.330Z,1006.85
2018-06-12T04:59:19.841Z,1006.82
2018-06-12T04:59:45.623Z,1006.86
2018-06-12T05:00:11.119Z,1006.85
2018-06-12T05:00:36.592Z,1006.85
2018-06-12T05:01:02.163Z,1006.86
2018-06-12T05:01:27.570Z,1006.84
2018-06-12T05:01:53.230Z,1006.83
2018-06-12T05:02:18.659Z,1006.83
2018-06-12T05:02:44.177Z,1006.82
2018-06-12T05:03:09.600Z,1006.84
2018-06-12T05:03:35.152Z,1006.83
2018-06-12T05:04:00.739Z,1006.83
2018-06-12T05:04:26.155Z,1006.86
2018-06-12T05:04:51.669Z,1006.81
2018-06-12T05:05:17.241Z,1006.84
2018-06-12T05:05:42.970Z,1006.81
2018-06-12T05:06:08.455Z,1006.8
2018-06-12T05:06:33.945Z,1006.81
2018-06-12T05:06:59.420Z,1006.78
2018-06-12T05:07:24.940Z,1006.82
2018-06-12T05:07:50.388Z,1006.81
2018-06-12T05:08:15.945Z,1006.82
2018-06-12T05:08:41.346Z,1006.81
2018-06-12T05:09:06.949Z,1006.84
2018-06-12T05:09:32.488Z,1006.86
2018-06-12T05:09:57.950Z,1006.85
2018-06-12T05:10:23.478Z,1006.83
2018-06-12T05:10:48.958Z,1006.83
2018-06-12T05:11:14.475Z,1006.86
2018-06-12T05:11:39.953Z,1006.87
2018-06-12T05:12:05.481Z,1006.88
2018-06-12T05:12:31.137Z,1006.89
2018-06-12T05:12:56.640Z,1006.86
2018-06-12T05:13:22.080Z,1006.87
2018-06-12T05:13:47.593Z,1006.86
2018-06-12T05:14:13.152Z,1006.9
2018-06-12T05:14:38.651Z,1006.9
2018-06-12T05:15:04.103Z,1006.89
2018-06-12T05:15:29.631Z,1006.92
2018-06-12T05:15:55.147Z,1006.92
2018-06-12T05:16:20.697Z,1006.93
2018-06-12T05:16:46.465Z,1006.9
2018-06-12T05:17:11.922Z,1006.95
2018-06-12T05:17:37.460Z,1006.95
2018-06-12T05:18:02.910Z,1006.95
2018-06-12T05:18:28.405Z,1006.98
2018-06-12T05:19:32.034Z,1006.96
2018-06-12T05:19:57.522Z,1006.98
2018-06-12T05:20:23.064Z,1006.98
2018-06-12T05:20:48.473Z,1006.96
2018-06-12T05:21:13.993Z,1006.96
2018-06-12T05:21:39.478Z,1006.98
2018-06-12T05:22:04.989Z,1007.02
2018-06-12T05:22:30.493Z,1006.97
2018-06-12T05:22:55.985Z,1006.97
2018-06-12T05:23:21.450Z,1006.97
2018-06-12T05:23:46.889Z,1006.99
2018-06-12T05:24:12.380Z,1006.98
2018-06-12T05:24:37.877Z,1007
2018-06-12T05:25:03.369Z,1006.99
2018-06-12T05:25:28.908Z,1006.99
2018-06-12T05:25:54.334Z,1006.97
2018-06-12T05:26:19.845Z,1006.97
2018-06-12T05:26:45.328Z,1006.97
2018-06-12T05:27:10.834Z,1006.96
2018-06-12T05:27:36.345Z,1006.93
2018-06-12T05:28:01.901Z,1006.93
2018-06-12T05:28:27.312Z,1006.93
2018-06-12T05:28:52.772Z,1006.98
2018-06-12T05:29:18.248Z,1006.96
2018-06-12T05:29:43.752Z,1006.95
2018-06-12T05:30:09.292Z,1006.89
2018-06-12T05:30:34.742Z,1006.94
2018-06-12T05:31:00.383Z,1006.88
2018-06-12T05:31:25.852Z,1006.92
2018-06-12T05:31:51.547Z,1006.92
2018-06-12T05:32:16.960Z,1006.92
2018-06-12T05:32:42.599Z,1006.92
2018-06-12T05:33:08.050Z,1006.94
2018-06-12T05:33:33.501Z,1006.95
2018-06-12T05:33:58.913Z,1006.96
2018-06-12T05:34:24.425Z,1006.93
2018-06-12T05:34:49.967Z,1006.95
2018-06-12T05:35:15.369Z,1006.99
2018-06-12T05:35:41.093Z,1006.96
2018-06-12T05:36:06.713Z,1007.01
2018-06-12T05:36:33.057Z,1006.99
2018-06-12T05:36:58.474Z,1007.01
2018-06-12T05:37:24.047Z,1006.99
2018-06-12T05:37:49.703Z,1007.03
2018-06-12T05:38:15.208Z,1006.99
2018-06-12T05:38:40.678Z,1007.01
2018-06-12T05:39:06.148Z,1007.03
2018-06-12T05:39:31.647Z,1007.02
2018-06-12T05:39:57.166Z,1007.02
2018-06-12T05:40:22.750Z,1007.02
2018-06-12T05:40:48.200Z,1007.01
2018-06-12T05:41:13.739Z,1007.05
2018-06-12T05:41:39.239Z,1007.02
2018-06-12T05:42:04.681Z,1007.04
2018-06-12T05:42:30.242Z,1007.03
2018-06-12T05:42:55.840Z,1007.02
2018-06-12T05:43:21.393Z,1007.06
2018-06-12T05:43:46.826Z,1007.01
2018-06-12T05:44:12.366Z,1007.07
2018-06-12T05:44:38.003Z,1007.06
2018-06-12T05:45:03.553Z,1007.03
2018-06-12T05:45:29.092Z,1007.05
2018-06-12T05:45:54.693Z,1007.02
2018-06-12T05:46:20.096Z,1007.05
2018-06-12T05:46:45.956Z,1007.01
2018-06-12T05:47:11.428Z,1007.02
2018-06-12T05:47:36.926Z,1007.03
2018-06-12T05:48:02.467Z,1007.04
2018-06-12T05:48:27.925Z,1007.01
2018-06-12T05:48:53.533Z,1007.02
2018-06-12T05:49:19.043Z,1007.07
2018-06-12T05:49:44.487Z,1007.04
2018-06-12T05:50:10.082Z,1007.02
2018-06-12T05:50:35.514Z,1007.01
2018-06-12T05:51:01.002Z,1007.06
2018-06-12T05:51:26.527Z,1007.05
2018-06-12T05:51:52.077Z,1007.05
2018-06-12T05:52:17.475Z,1007.07
2018-06-12T05:52:43.007Z,1007.01
2018-06-12T05:53:08.637Z,1007.06
2018-06-12T05:53:34.239Z,1007.08
2018-06-12T05:53:59.678Z,1007.09
2018-06-12T05:54:25.164Z,1007.06
2018-06-12T05:54:50.746Z,1007.1
2018-06-12T05:55:16.231Z,1007.09
2018-06-12T05:55:41.674Z,1007.1
2018-06-12T05:56:07.139Z,1007.09
2018-06-12T05:56:32.638Z,1007.08
2018-06-12T05:56:58.143Z,1007.08
2018-06-12T05:57:23.689Z,1007.06
2018-06-12T05:57:49.280Z,1007.08
2018-06-12T05:58:14.918Z,1007.12
2018-06-12T05:58:40.327Z,1007.09
2018-06-12T05:59:05.963Z,1007.08
2018-06-12T05:59:31.420Z,1007.14
2018-06-12T05:59:57.638Z,1007.14
2018-06-12T06:00:25.457Z,1007.13
2018-06-12T06:00:51.991Z,1007.14
2018-06-12T06:01:17.606Z,1007.13
2018-06-12T06:01:43.387Z,1007.11
2018-06-12T06:02:08.950Z,1007.11
2018-06-12T06:02:34.534Z,1007.15
2018-06-12T06:03:00.045Z,1007.11
2018-06-12T06:03:25.646Z,1007.11
2018-06-12T06:03:51.270Z,1007.09
2018-06-12T06:04:16.751Z,1007.11
2018-06-12T06:04:42.304Z,1007.12
2018-06-12T06:05:07.879Z,1007.11
2018-06-12T06:05:33.408Z,1007.13
2018-06-12T06:05:59.120Z,1007.09
2018-06-12T06:06:24.540Z,1007.15
2018-06-12T06:06:50.015Z,1007.1
2018-06-12T06:07:15.499Z,1007.14
2018-06-12T06:07:40.998Z,1007.13
2018-06-12T06:08:06.499Z,1007.15
2018-06-12T06:08:31.954Z,1007.16
2018-06-12T06:08:57.453Z,1007.19
2018-06-12T06:09:22.946Z,1007.16
2018-06-12T06:09:48.433Z,1007.18
2018-06-12T06:10:13.959Z,1007.18
2018-06-12T06:10:39.513Z,1007.17
2018-06-12T06:11:05.034Z,1007.19
2018-06-12T06:11:30.485Z,1007.19
2018-06-12T06:11:55.979Z,1007.22
2018-06-12T06:12:21.500Z,1007.21
2018-06-12T06:13:25.100Z,1007.23
2018-06-12T06:13:50.556Z,1007.24
2018-06-12T06:14:16.021Z,1007.24
2018-06-12T06:14:41.467Z,1007.24
2018-06-12T06:15:06.907Z,1007.25
2018-06-12T06:15:32.389Z,1007.25
2018-06-12T06:15:57.875Z,1007.24
2018-06-12T06:16:23.357Z,1007.25
2018-06-12T06:16:49.625Z,1007.28
2018-06-12T06:17:14.935Z,1007.28
2018-06-12T06:17:40.461Z,1007.28
2018-06-12T06:18:05.986Z,1007.31
2018-06-12T06:18:31.490Z,1007.31
2018-06-12T06:18:57.056Z,1007.29
2018-06-12T06:19:22.532Z,1007.29
2018-06-12T06:19:47.977Z,1007.26
2018-06-12T06:20:57.686Z,1007.26
2018-06-12T06:21:23.250Z,1007.28
2018-06-12T06:21:48.718Z,1007.32
2018-06-12T06:22:14.178Z,1007.32
2018-06-12T06:22:39.783Z,1007.27
2018-06-12T06:23:05.292Z,1007.3
2018-06-12T06:23:30.724Z,1007.32
2018-06-12T06:23:56.201Z,1007.31
2018-06-12T06:24:21.756Z,1007.33
2018-06-12T06:24:47.222Z,1007.31
2018-06-12T06:25:12.765Z,1007.29
2018-06-12T06:25:38.351Z,1007.31
2018-06-12T06:26:03.857Z,1007.34
2018-06-12T06:26:29.559Z,1007.32
2018-06-12T06:26:55.092Z,1007.29
2018-06-12T06:27:20.619Z,1007.27
2018-06-12T06:27:46.188Z,1007.28
2018-06-12T06:28:11.624Z,1007.3
2018-06-12T06:28:37.083Z,1007.27
2018-06-12T06:29:02.641Z,1007.31
2018-06-12T06:29:28.239Z,1007.31
2018-06-12T06:29:53.856Z,1007.28
2018-06-12T06:30:19.326Z,1007.29
2018-06-12T06:30:44.738Z,1007.3
2018-06-12T06:31:10.258Z,1007.3
2018-06-12T06:31:35.773Z,1007.27
2018-06-12T06:32:01.285Z,1007.31
2018-06-12T06:32:26.865Z,1007.3
2018-06-12T06:32:52.375Z,1007.32
2018-06-12T06:33:17.967Z,1007.34
2018-06-12T06:33:43.615Z,1007.32
2018-06-12T06:34:08.985Z,1007.34
2018-06-12T06:34:34.551Z,1007.32
2018-06-12T06:34:59.950Z,1007.35
2018-06-12T06:35:25.401Z,1007.32
2018-06-12T06:35:50.914Z,1007.3
2018-06-12T06:36:16.515Z,1007.32
2018-06-12T06:36:41.947Z,1007.32
2018-06-12T06:37:07.523Z,1007.31
2018-06-12T06:37:32.969Z,1007.32
2018-06-12T06:37:58.566Z,1007.33
2018-06-12T06:38:24.074Z,1007.32
2018-06-12T06:38:49.645Z,1007.28
2018-06-12T06:39:15.070Z,1007.3
2018-06-12T06:39:40.640Z,1007.34
2018-06-12T06:40:06.032Z,1007.31
2018-06-12T06:40:31.530Z,1007.31
2018-06-12T06:40:57.113Z,1007.31
2018-06-12T06:41:22.574Z,1007.27
2018-06-12T06:41:48.180Z,1007.31
2018-06-12T06:42:13.688Z,1007.34
2018-06-12T06:42:39.256Z,1007.28
2018-06-12T06:43:04.715Z,1007.3
2018-06-12T06:43:30.200Z,1007.28
2018-06-12T06:43:55.730Z,1007.3
2018-06-12T06:44:21.418Z,1007.29
2018-06-12T06:44:46.883Z,1007.31
2018-06-12T06:45:12.414Z,1007.31
2018-06-12T06:45:37.862Z,1007.33
2018-06-12T06:46:03.350Z,1007.35
2018-06-12T06:46:29.024Z,1007.29
2018-06-12T06:46:54.383Z,1007.33
2018-06-12T06:47:19.879Z,1007.31
2018-06-12T06:47:45.841Z,1007.29
2018-06-12T06:48:11.292Z,1007.31
2018-06-12T06:48:36.804Z,1007.31
2018-06-12T06:49:02.289Z,1007.3
2018-06-12T06:49:27.768Z,1007.34
2018-06-12T06:49:53.291Z,1007.27
2018-06-12T06:50:18.791Z,1007.31
2018-06-12T06:50:44.290Z,1007.28
2018-06-12T06:51:09.729Z,1007.28
2018-06-12T06:51:35.166Z,1007.3
2018-06-12T06:52:00.617Z,1007.27
2018-06-12T06:52:26.158Z,1007.26
2018-06-12T06:52:51.612Z,1007.25
2018-06-12T06:53:17.057Z,1007.28
2018-06-12T06:53:42.615Z,1007.24
2018-06-12T06:54:08.021Z,1007.31
2018-06-12T06:54:33.562Z,1007.25
2018-06-12T06:54:59.073Z,1007.27
2018-06-12T06:55:24.499Z,1007.29
2018-06-12T06:55:50.024Z,1007.23
2018-06-12T06:56:15.482Z,1007.25
2018-06-12T06:56:40.952Z,1007.24
2018-06-12T06:57:06.442Z,1007.2
2018-06-12T06:57:31.961Z,1007.24
2018-06-12T06:57:57.381Z,1007.21
2018-06-12T06:58:22.897Z,1007.22
2018-06-12T06:58:48.403Z,1007.2
2018-06-12T06:59:13.831Z,1007.19
2018-06-12T06:59:39.414Z,1007.17
2018-06-12T07:00:04.866Z,1007.16
2018-06-12T07:00:30.349Z,1007.17
2018-06-12T07:00:55.845Z,1007.16
2018-06-12T07:01:21.314Z,1007.18
2018-06-12T07:01:46.832Z,1007.19
2018-06-12T07:02:12.318Z,1007.18
2018-06-12T07:02:37.830Z,1007.17
2018-06-12T07:03:03.378Z,1007.16
2018-06-12T07:03:28.828Z,1007.21
2018-06-12T07:03:54.322Z,1007.17
2018-06-12T07:04:19.789Z,1007.16
2018-06-12T07:04:45.293Z,1007.15
2018-06-12T07:05:10.733Z,1007.17
2018-06-12T07:05:36.198Z,1007.17
2018-06-12T07:06:01.739Z,1007.17
2018-06-12T07:06:27.190Z,1007.19
2018-06-12T07:06:52.609Z,1007.22
2018-06-12T07:07:18.116Z,1007.23
2018-06-12T07:07:43.597Z,1007.19
2018-06-12T07:08:09.025Z,1007.21
2018-06-12T07:08:34.532Z,1007.22
2018-06-12T07:09:00.054Z,1007.22
2018-06-12T07:09:25.684Z,1007.19
2018-06-12T07:09:51.208Z,1007.2
2018-06-12T07:10:16.803Z,1007.17
2018-06-12T07:10:42.402Z,1007.22
2018-06-12T07:11:07.824Z,1007.22
2018-06-12T07:11:33.813Z,1007.21
2018-06-12T07:11:59.267Z,1007.21
2018-06-12T07:12:24.874Z,1007.18
2018-06-12T07:12:50.468Z,1007.2
2018-06-12T07:13:16.093Z,1007.2
2018-06-12T07:13:41.616Z,1007.2
2018-06-12T07:14:07.264Z,1007.23
2018-06-12T07:14:32.750Z,1007.22
2018-06-12T07:14:58.378Z,1007.24
2018-06-12T07:15:23.756Z,1007.27
2018-06-12T07:15:49.245Z,1007.23
2018-06-12T07:16:14.734Z,1007.22
2018-06-12T07:16:40.341Z,1007.26
2018-06-12T07:17:05.819Z,1007.23
2018-06-12T07:17:31.354Z,1007.22
2018-06-12T07:17:56.881Z,1007.23
2018-06-12T07:18:22.368Z,1007.24
2018-06-12T07:18:47.870Z,1007.26
2018-06-12T07:19:13.351Z,1007.25
2018-06-12T07:19:38.860Z,1007.25
2018-06-12T07:20:04.331Z,1007.22
2018-06-12T07:20:29.865Z,1007.24
2018-06-12T07:20:55.410Z,1007.22
2018-06-12T07:21:20.953Z,1007.2
2018-06-12T07:21:46.436Z,1007.26
2018-06-12T07:22:11.994Z,1007.22
2018-06-12T07:22:37.448Z,1007.21
2018-06-12T07:23:03.038Z,1007.21
2018-06-12T07:23:28.575Z,1007.19
2018-06-12T07:23:54.005Z,1007.2
2018-06-12T07:24:19.556Z,1007.23
2018-06-12T07:24:45.044Z,1007.21
2018-06-12T07:25:10.567Z,1007.21
2018-06-12T07:25:36.083Z,1007.18
2018-06-12T07:26:01.642Z,1007.2
2018-06-12T07:26:27.164Z,1007.22
2018-06-12T07:26:52.559Z,1007.19
2018-06-12T07:27:18.089Z,1007.17
2018-06-12T07:27:43.620Z,1007.22
2018-06-12T07:28:09.185Z,1007.11
2018-06-12T07:28:34.679Z,1007.19
2018-06-12T07:29:00.193Z,1007.16
2018-06-12T07:29:25.749Z,1007.17
2018-06-12T07:29:51.240Z,1007.21
2018-06-12T07:30:16.749Z,1007.23
2018-06-12T07:30:42.206Z,1007.19
2018-06-12T07:31:08.026Z,1007.21
2018-06-12T07:31:33.801Z,1007.18
2018-06-12T07:31:59.182Z,1007.21
2018-06-12T07:32:24.719Z,1007.22
2018-06-12T07:32:50.212Z,1007.17
2018-06-12T07:33:15.627Z,1007.2
2018-06-12T07:33:41.237Z,1007.19
2018-06-12T07:34:06.789Z,1007.2
2018-06-12T07:34:32.341Z,1007.21
2018-06-12T07:34:57.847Z,1007.2
2018-06-12T07:35:23.313Z,1007.18
2018-06-12T07:35:48.831Z,1007.15
2018-06-12T07:36:14.435Z,1007.17
2018-06-12T07:36:39.925Z,1007.16
2018-06-12T07:37:05.618Z,1007.13
2018-06-12T07:37:31.119Z,1007.21
2018-06-12T07:37:56.808Z,1007.21
2018-06-12T07:38:22.356Z,1007.19
2018-06-12T07:38:47.798Z,1007.19
2018-06-12T07:39:13.320Z,1007.18
2018-06-12T07:39:38.889Z,1007.17
2018-06-12T07:40:04.368Z,1007.16
2018-06-12T07:40:29.867Z,1007.19
2018-06-12T07:40:55.747Z,1007.14
2018-06-12T07:41:21.301Z,1007.19
2018-06-12T07:41:46.817Z,1007.14
2018-06-12T07:42:12.253Z,1007.19
2018-06-12T07:42:37.913Z,1007.17
2018-06-12T07:43:03.567Z,1007.17
2018-06-12T07:43:29.172Z,1007.16
2018-06-12T07:43:54.611Z,1007.16
2018-06-12T07:44:20.445Z,1007.18
2018-06-12T07:44:46.602Z,1007.19
2018-06-12T07:45:12.240Z,1007.2
2018-06-12T07:45:37.820Z,1007.2
2018-06-12T07:46:03.219Z,1007.19
2018-06-12T07:46:28.731Z,1007.19
2018-06-12T07:46:54.284Z,1007.18
2018-06-12T07:47:19.830Z,1007.18
2018-06-12T07:47:45.360Z,1007.21
2018-06-12T07:48:10.825Z,1007.2
2018-06-12T07:48:36.341Z,1007.23
2018-06-12T07:49:01.982Z,1007.18
2018-06-12T07:49:27.481Z,1007.19
2018-06-12T07:49:53.023Z,1007.18
2018-06-12T07:50:18.705Z,1007.16
2018-06-12T07:50:44.210Z,1007.16
2018-06-12T07:51:09.673Z,1007.19
2018-06-12T07:51:35.210Z,1007.19
2018-06-12T07:52:00.956Z,1007.17
2018-06-12T07:52:26.539Z,1007.2
2018-06-12T07:52:52.013Z,1007.16
2018-06-12T07:53:17.574Z,1007.19
2018-06-12T07:53:42.983Z,1007.18
2018-06-12T07:54:08.693Z,1007.2
2018-06-12T07:54:34.248Z,1007.19
2018-06-12T07:54:59.706Z,1007.19
2018-06-12T07:55:25.233Z,1007.18
2018-06-12T07:55:50.785Z,1007.17
2018-06-12T07:56:16.259Z,1007.19
2018-06-12T07:56:41.779Z,1007.16
2018-06-12T07:57:07.303Z,1007.14
2018-06-12T07:57:32.868Z,1007.15
2018-06-12T07:57:58.393Z,1007.1
2018-06-12T07:58:23.860Z,1007.14
2018-06-12T07:58:49.369Z,1007.14
2018-06-12T07:59:15.093Z,1007.17
2018-06-12T07:59:40.635Z,1007.12
2018-06-12T08:00:06.172Z,1007.13
2018-06-12T08:00:31.876Z,1007.16
2018-06-12T08:00:57.409Z,1007.16
2018-06-12T08:01:22.938Z,1007.14
2018-06-12T08:01:48.499Z,1007.14
2018-06-12T08:02:13.928Z,1007.18
2018-06-12T08:02:39.718Z,1007.15
2018-06-12T08:03:05.233Z,1007.15
2018-06-12T08:03:30.694Z,1007.18
2018-06-12T08:03:56.183Z,1007.16
2018-06-12T08:04:21.687Z,1007.16
2018-06-12T08:04:47.308Z,1007.14
2018-06-12T08:05:13.077Z,1007.12
2018-06-12T08:05:38.757Z,1007.18
2018-06-12T08:06:04.153Z,1007.19
2018-06-12T08:06:30.280Z,1007.18
2018-06-12T08:06:55.940Z,1007.16
2018-06-12T08:07:21.486Z,1007.13
2018-06-12T08:07:47.332Z,1007.15
2018-06-12T08:08:12.907Z,1007.14
2018-06-12T08:08:39.073Z,1007.19
2018-06-12T08:09:05.225Z,1007.16
2018-06-12T08:09:30.235Z,1007.17
2018-06-12T08:09:55.789Z,1007.14
2018-06-12T08:10:21.567Z,1007.15
2018-06-12T08:10:47.217Z,1007.16
2018-06-12T08:11:12.923Z,1007.15
2018-06-12T08:11:39.024Z,1007.15
2018-06-12T08:12:04.663Z,1007.18
2018-06-12T08:12:30.201Z,1007.16
2018-06-12T08:12:56.299Z,1007.15
2018-06-12T08:13:22.871Z,1007.14
2018-06-12T08:13:48.961Z,1007.17
2018-06-12T08:14:14.545Z,1007.16
2018-06-12T08:14:40.495Z,1007.15
2018-06-12T08:15:06.399Z,1007.17
2018-06-12T08:15:32.724Z,1007.19
2018-06-12T08:15:58.470Z,1007.24
2018-06-12T08:16:24.084Z,1007.22
2018-06-12T08:16:49.617Z,1007.19
2018-06-12T08:17:15.496Z,1007.19
2018-06-12T08:17:41.115Z,1007.22
2018-06-12T08:18:07.134Z,1007.23
2018-06-12T08:18:32.757Z,1007.24
2018-06-12T08:18:58.730Z,1007.25
2018-06-12T08:19:24.812Z,1007.24
2018-06-12T08:19:50.846Z,1007.23
2018-06-12T08:20:16.477Z,1007.18
2018-06-12T08:20:41.927Z,1007.24
2018-06-12T08:21:07.744Z,1007.23
2018-06-12T08:21:33.639Z,1007.22
2018-06-12T08:21:59.060Z,1007.15
2018-06-12T08:22:24.790Z,1007.18
2018-06-12T08:22:50.540Z,1007.18
2018-06-12T08:23:16.056Z,1007.14
2018-06-12T08:23:41.818Z,1007.15
2018-06-12T08:24:07.363Z,1007.17
2018-06-12T08:24:33.176Z,1007.17
2018-06-12T08:24:58.753Z,1007.22
2018-06-12T08:25:24.915Z,1007.18
2018-06-12T08:25:50.481Z,1007.19
2018-06-12T08:26:16.241Z,1007.22
2018-06-12T08:26:41.936Z,1007.18
2018-06-12T08:27:07.551Z,1007.23
2018-06-12T08:27:34.225Z,1007.22
2018-06-12T08:28:00.222Z,1007.26
2018-06-12T08:28:25.480Z,1007.19
2018-06-12T08:28:52.498Z,1007.21
2018-06-12T08:29:18.226Z,1007.27
2018-06-12T08:29:43.729Z,1007.22
2018-06-12T08:30:09.193Z,1007.22
2018-06-12T08:30:35.714Z,1007.21
2018-06-12T08:31:01.214Z,1007.24
2018-06-12T08:31:26.742Z,1007.19
2018-06-12T08:31:52.537Z,1007.2
2018-06-12T08:32:18.404Z,1007.21
2018-06-12T08:32:44.041Z,1007.17
2018-06-12T08:33:10.156Z,1007.18
2018-06-12T08:33:35.836Z,1007.17
2018-06-12T08:34:01.852Z,1007.15
2018-06-12T08:34:27.379Z,1007.19
2018-06-12T08:34:53.075Z,1007.15
2018-06-12T08:35:18.595Z,1007.22
2018-06-12T08:35:44.046Z,1007.17
2018-06-12T08:36:09.513Z,1007.14
2018-06-12T08:36:34.977Z,1007.16
2018-06-12T08:37:00.453Z,1007.19
2018-06-12T08:37:25.970Z,1007.18
2018-06-12T08:37:51.397Z,1007.15
2018-06-12T08:38:17.359Z,1007.16
2018-06-12T08:38:43.139Z,1007.13
2018-06-12T08:39:08.664Z,1007.18
2018-06-12T08:39:34.464Z,1007.17
2018-06-12T08:40:00.219Z,1007.15
2018-06-12T08:40:26.072Z,1007.15
2018-06-12T08:40:51.955Z,1007.15
2018-06-12T08:41:17.754Z,1007.08
2018-06-12T08:41:43.477Z,1007.12
2018-06-12T08:42:08.956Z,1007.15
2018-06-12T08:42:34.961Z,1007.11
2018-06-12T08:43:00.773Z,1007.1
2018-06-12T08:43:26.201Z,1007.12
2018-06-12T08:43:51.880Z,1007.16
2018-06-12T08:44:17.538Z,1007.14
2018-06-12T08:44:43.530Z,1007.12
2018-06-12T08:45:09.646Z,1007.14
2018-06-12T08:45:35.110Z,1007.1
2018-06-12T08:46:00.725Z,1007.1
2018-06-12T08:46:26.247Z,1007.15
2018-06-12T08:46:52.017Z,1007.1
2018-06-12T08:47:17.517Z,1007.12
2018-06-12T08:47:43.359Z,1007.14
2018-06-12T08:48:08.814Z,1007.1
2018-06-12T08:48:34.463Z,1007.11
2018-06-12T08:48:59.841Z,1007.07
2018-06-12T08:49:25.618Z,1007.07
2018-06-12T08:49:51.183Z,1007.04
2018-06-12T08:50:16.661Z,1007.05
2018-06-12T08:50:42.066Z,1007.06
2018-06-12T08:51:07.592Z,1007.05
2018-06-12T08:51:33.145Z,1007.06
2018-06-12T08:51:59.030Z,1007.08
2018-06-12T08:52:24.424Z,1007.05
2018-06-12T08:52:49.931Z,1007.02
2018-06-12T08:53:15.552Z,1007.09
2018-06-12T08:53:41.227Z,1007.03
2018-06-12T08:54:06.886Z,1007.06
2018-06-12T08:54:32.337Z,1007.04
2018-06-12T08:54:57.834Z,1007.04
2018-06-12T08:55:23.574Z,1007
2018-06-12T08:55:49.040Z,1007.04
2018-06-12T08:56:14.512Z,1006.99
2018-06-12T08:56:41.309Z,1006.99
2018-06-12T08:57:06.866Z,1007.06
2018-06-12T08:57:32.393Z,1007.09
2018-06-12T08:57:57.951Z,1007.05
2018-06-12T08:58:23.782Z,1007.04
2018-06-12T08:58:49.483Z,1007.05
2018-06-12T08:59:15.248Z,1007.03
2018-06-12T08:59:40.951Z,1007.07
2018-06-12T09:00:06.455Z,1007.03
2018-06-12T09:00:31.970Z,1007.03
2018-06-12T09:00:57.461Z,1007.01
2018-06-12T09:01:22.959Z,1007.04
2018-06-12T09:01:48.436Z,1007.07
2018-06-12T09:02:13.940Z,1007.04
2018-06-12T09:02:39.453Z,1007.06
2018-06-12T09:03:04.891Z,1007.01
2018-06-12T09:03:30.330Z,1007.03
2018-06-12T09:03:55.842Z,1007.06
2018-06-12T09:04:21.349Z,1007.07
2018-06-12T09:04:46.847Z,1007.07
2018-06-12T09:05:12.309Z,1007.07
2018-06-12T09:05:37.771Z,1007.07
2018-06-12T09:06:03.272Z,1007.08
2018-06-12T09:06:28.718Z,1007.11
2018-06-12T09:06:54.217Z,1007.06
2018-06-12T09:07:20.031Z,1007.09
2018-06-12T09:07:45.496Z,1007.08
2018-06-12T09:08:10.992Z,1007.06
2018-06-12T09:08:36.497Z,1007.09
2018-06-12T09:09:01.972Z,1007.11
2018-06-12T09:09:27.435Z,1007.12
2018-06-12T09:09:52.934Z,1007.11
2018-06-12T09:10:18.433Z,1007.13
2018-06-12T09:10:43.949Z,1007.14
2018-06-12T09:11:09.452Z,1007.12
2018-06-12T09:11:35.025Z,1007.08
2018-06-12T09:12:00.584Z,1007.12
2018-06-12T09:12:26.120Z,1007.07
2018-06-12T09:12:51.728Z,1007.1
2018-06-12T09:13:17.252Z,1007.1
2018-06-12T09:13:42.742Z,1007.07
2018-06-12T09:14:08.324Z,1007.12
2018-06-12T09:14:33.839Z,1007.11
2018-06-12T09:14:59.375Z,1007.1
2018-06-12T09:15:24.900Z,1007.06
2018-06-12T09:15:50.547Z,1007.09
2018-06-12T09:16:15.961Z,1007.1
2018-06-12T09:16:41.453Z,1007.11
2018-06-12T09:17:06.985Z,1007.14
2018-06-12T09:17:32.508Z,1007.1
2018-06-12T09:17:58.091Z,1007.07
2018-06-12T09:18:23.582Z,1007.1
2018-06-12T09:18:49.036Z,1007.1
2018-06-12T09:19:14.461Z,1007.11
2018-06-12T09:19:40.016Z,1007.16
2018-06-12T09:20:05.453Z,1007.14
2018-06-12T09:20:30.940Z,1007.13
2018-06-12T09:20:56.471Z,1007.18
2018-06-12T09:21:21.943Z,1007.2
2018-06-12T09:21:47.455Z,1007.2